TE23 weather

Santa Rosa Northwest Hospital Heliport
San Antonio, Texas, United States

Public forecast

Using degrees Fahrenheit for public forecast. Weather courtesy of forecast.io.

METAR (pilot weather report)

Closest report is San Antonio International Airport, 6.4 nm (11.8 km) ENE. Retrieved 2019/09/22 06:51 UTC (52 minutes ago):

KSAT 220651Z 13008KT 10SM BKN018 25/22 A3003 RMK AO2 SLP148 T02500222

TAF (pilot weather forecast)

Closest forecast is San Antonio International Airport, 6.4 nm (11.8 km) ENE. Retrieved 2019/09/22 06:34 UTC (1 hour ago):

TAF KSAT 220532Z 2206/2312 14010KT P6SM BKN011 FM221200 16007KT P6SM BKN008 FM221600 16010KT P6SM SCT060 FM230600 16007KT P6SM BKN015